createdAt,value
2019-04-21T00:00:19.252Z,43.42
2019-04-21T00:01:16.727Z,44.24
2019-04-21T00:02:25.487Z,43.84
2019-04-21T00:03:25.642Z,42.40
2019-04-21T00:04:29.967Z,42.09
2019-04-21T00:05:32.079Z,44.35
2019-04-21T00:06:35.310Z,42.71
2019-04-21T00:07:36.174Z,43.22
2019-04-21T00:08:37.698Z,43.94
2019-04-21T00:09:41.820Z,42.09
2019-04-21T00:10:40.050Z,43.32
2019-04-21T00:12:35.880Z,44.24
2019-04-21T00:13:32.935Z,42.60
2019-04-21T00:14:31.577Z,43.94
2019-04-21T00:15:27.689Z,41.58
2019-04-21T00:16:29.116Z,41.78
2019-04-21T00:17:20.861Z,41.58
2019-04-21T00:18:17.436Z,41.99
2019-04-21T00:19:21.153Z,41.78
2019-04-21T00:20:26.624Z,42.81
2019-04-21T00:21:28.217Z,42.60
2019-04-21T00:22:31.430Z,42.29
2019-04-21T00:23:32.823Z,43.01
2019-04-21T00:24:32.351Z,42.09
2019-04-21T00:25:31.065Z,42.09
2019-04-21T00:26:36.379Z,42.21
2019-04-21T00:27:36.892Z,42.50
2019-04-21T00:28:47.243Z,42.29
2019-04-21T00:29:38.411Z,41.68
2019-04-21T00:30:43.062Z,41.99
2019-04-21T00:31:35.318Z,41.58
2019-04-21T00:32:29.214Z,41.16
2019-04-21T00:33:24.396Z,40.86
2019-04-21T00:34:17.652Z,41.06
2019-04-21T00:35:22.495Z,40.73
2019-04-21T00:36:24.212Z,40.94
2019-04-21T00:37:26.846Z,40.94
2019-04-21T00:38:40.468Z,40.94
2019-04-21T00:39:44.034Z,41.06
2019-04-21T00:40:41.436Z,40.75
2019-04-21T00:41:36.692Z,40.65
2019-04-21T00:42:34.315Z,40.65
2019-04-21T00:43:33.578Z,40.75
2019-04-21T00:44:26.959Z,40.45
2019-04-21T00:45:31.313Z,40.84
2019-04-21T00:46:32.404Z,40.86
2019-04-21T00:47:53.319Z,40.94
2019-04-21T00:48:42.402Z,40.94
2019-04-21T00:49:31.110Z,41.06
2019-04-21T00:50:40.609Z,40.96
2019-04-21T00:51:46.638Z,41.16
2019-04-21T00:53:43.543Z,41.37
2019-04-21T00:54:46.379Z,41.47
2019-04-21T00:56:41.365Z,41.68
2019-04-21T00:57:44.962Z,42.19
2019-04-21T00:58:39.617Z,42.48
2019-04-21T00:59:40.394Z,43.10
2019-04-21T01:00:38.483Z,43.30
2019-04-21T01:01:42.486Z,43.84
2019-04-21T01:02:48.513Z,43.91
2019-04-21T01:03:37.249Z,44.33
2019-04-21T01:04:42.926Z,44.33
2019-04-21T01:05:42.952Z,44.64
2019-04-21T01:06:42.735Z,44.76
2019-04-21T01:07:37.095Z,44.96
2019-04-21T01:08:36.014Z,45.17
2019-04-21T01:09:31.685Z,45.58
2019-04-21T01:10:28.765Z,45.70
2019-04-21T01:11:42.200Z,46.22
2019-04-21T01:12:37.681Z,46.32
2019-04-21T01:13:42.579Z,46.42
2019-04-21T01:14:41.912Z,46.62
2019-04-21T01:15:43.647Z,46.73
2019-04-21T01:16:40.869Z,47.14
2019-04-21T01:17:40.849Z,47.14
2019-04-21T01:18:38.150Z,47.27
2019-04-21T01:19:33.685Z,47.58
2019-04-21T01:20:17.944Z,47.67
2019-04-21T01:21:15.586Z,47.67
2019-04-21T01:22:15.564Z,48.09
2019-04-21T01:23:16.631Z,48.39
2019-04-21T01:24:21.741Z,48.42
2019-04-21T01:25:27.193Z,48.72
2019-04-21T01:26:30.749Z,48.72
2019-04-21T01:27:39.792Z,48.93
2019-04-21T01:28:36.299Z,49.14
2019-04-21T01:29:44.152Z,49.44
2019-04-21T01:30:34.332Z,49.76
2019-04-21T01:31:34.969Z,49.88
2019-04-21T01:32:34.444Z,50.09
2019-04-21T01:33:38.030Z,50.19
2019-04-21T01:34:38.945Z,50.40
2019-04-21T01:35:39.719Z,50.50
2019-04-21T01:36:34.730Z,50.40
2019-04-21T01:37:44.043Z,50.29
2019-04-21T01:38:40.329Z,50.52
2019-04-21T01:39:43.044Z,50.52
2019-04-21T01:40:43.291Z,50.62
2019-04-21T01:41:42.857Z,50.42
2019-04-21T01:42:36.936Z,50.21
2019-04-21T01:43:36.559Z,50.21
2019-04-21T01:44:54.884Z,50.32
2019-04-21T01:45:35.530Z,50.52
2019-04-21T01:46:36.370Z,50.32
2019-04-21T01:47:31.361Z,50.32
2019-04-21T01:48:37.741Z,50.52
2019-04-21T01:49:26.387Z,50.73
2019-04-21T01:50:36.441Z,50.62
2019-04-21T01:51:37.112Z,50.73
2019-04-21T01:52:47.189Z,50.73
2019-04-21T01:53:40.761Z,50.83
2019-04-21T01:54:43.200Z,50.96
2019-04-21T01:55:36.762Z,50.96
2019-04-21T01:56:35.734Z,52.40
2019-04-21T01:57:35.743Z,53.33
2019-04-21T01:58:29.024Z,52.91
2019-04-21T01:59:32.760Z,53.74
2019-04-21T02:00:32.665Z,54.35
2019-04-21T02:01:36.714Z,54.15
2019-04-21T02:02:35.998Z,54.87
2019-04-21T02:04:41.669Z,54.77
2019-04-21T02:05:37.689Z,54.77
2019-04-21T02:06:34.833Z,54.87
2019-04-21T02:07:40.569Z,55.28
2019-04-21T02:08:34.124Z,55.26
2019-04-21T02:09:39.350Z,55.05
2019-04-21T02:10:40.048Z,54.85
2019-04-21T02:11:40.744Z,55.26
2019-04-21T02:12:39.062Z,55.15
2019-04-21T02:13:44.324Z,55.36
2019-04-21T02:14:41.643Z,55.15
2019-04-21T02:15:59.298Z,55.05
2019-04-21T02:16:37.622Z,54.74
2019-04-21T02:17:34.169Z,54.74
2019-04-21T02:18:33.712Z,55.05
2019-04-21T02:19:32.594Z,55.05
2019-04-21T02:20:26.918Z,55.07
2019-04-21T02:21:31.857Z,55.49
2019-04-21T02:22:46.729Z,55.49
2019-04-21T02:23:47.476Z,55.49
2019-04-21T02:24:45.037Z,56.10
2019-04-21T02:25:38.394Z,56.00
2019-04-21T02:26:51.030Z,56.10
2019-04-21T02:27:36.470Z,55.93
2019-04-21T02:28:45.109Z,55.93
2019-04-21T02:29:43.830Z,56.03
2019-04-21T02:31:01.125Z,55.93
2019-04-21T02:31:45.160Z,56.26
2019-04-21T02:32:48.054Z,56.16
2019-04-21T02:34:00.694Z,56.05
2019-04-21T02:36:15.467Z,56.05
2019-04-21T02:36:52.925Z,55.85
2019-04-21T02:37:58.753Z,54.82
2019-04-21T02:39:06.241Z,54.41
2019-04-21T02:39:52.946Z,55.43
2019-04-21T02:40:47.802Z,54.61
2019-04-21T02:41:50.524Z,56.05
2019-04-21T02:44:59.854Z,54.41
2019-04-21T02:45:51.729Z,54.30
2019-04-21T02:48:04.452Z,54.10
2019-04-21T02:49:56.450Z,54.71
2019-04-21T02:50:47.223Z,54.61
2019-04-21T02:51:55.934Z,54.82
2019-04-21T02:54:26.078Z,54.92
2019-04-21T02:55:47.719Z,55.13
2019-04-21T02:57:51.394Z,54.74
2019-04-21T02:59:49.394Z,55.15
2019-04-21T03:00:43.103Z,55.26
2019-04-21T03:01:48.494Z,55.49
2019-04-21T03:02:47.278Z,55.90
2019-04-21T03:03:43.647Z,55.90
2019-04-21T03:05:02.282Z,55.90
2019-04-21T03:05:51.194Z,55.90
2019-04-21T03:07:55.478Z,56.34
2019-04-21T03:08:50.647Z,56.54
2019-04-21T03:11:52.320Z,57.40
2019-04-21T03:13:47.278Z,58.12
2019-04-21T03:15:47.321Z,58.64
2019-04-21T03:17:10.113Z,58.33
2019-04-21T03:18:48.222Z,58.20
2019-04-21T03:20:43.964Z,58.30
2019-04-21T03:21:52.557Z,58.50
2019-04-21T03:22:46.216Z,58.61
2019-04-21T03:23:54.105Z,58.61
2019-04-21T03:25:23.044Z,58.71
2019-04-21T03:27:01.064Z,58.71
2019-04-21T03:28:45.881Z,58.92
2019-04-21T03:31:06.718Z,59.05
2019-04-21T03:35:34.406Z,59.36
2019-04-21T03:37:47.737Z,60.42
2019-04-21T03:38:47.265Z,60.42
2019-04-21T03:40:44.284Z,61.04
2019-04-21T03:41:48.058Z,60.93
2019-04-21T03:43:43.795Z,61.66
2019-04-21T03:46:47.296Z,62.17
2019-04-21T03:47:43.479Z,62.17
2019-04-21T03:48:51.324Z,62.41
2019-04-21T03:49:54.567Z,62.51
2019-04-21T03:50:40.651Z,62.51
2019-04-21T03:51:48.335Z,62.51
2019-04-21T03:53:00.783Z,62.72
2019-04-21T03:54:54.038Z,62.93
2019-04-21T03:58:05.580Z,62.72
2019-04-21T03:58:56.313Z,62.72
2019-04-21T03:59:48.912Z,62.41
2019-04-21T04:01:48.855Z,61.07
2019-04-21T04:04:44.238Z,60.52
2019-04-21T04:06:02.038Z,59.90
2019-04-21T04:10:50.459Z,58.66
2019-04-21T04:12:42.449Z,58.04
2019-04-21T04:14:03.759Z,57.84
2019-04-21T04:14:47.997Z,57.63
2019-04-21T04:15:45.678Z,57.53
2019-04-21T04:17:08.826Z,57.11
2019-04-21T04:17:41.022Z,56.90
2019-04-21T04:18:52.803Z,56.70
2019-04-21T04:21:10.173Z,56.70
2019-04-21T04:21:49.329Z,56.70
2019-04-21T04:22:51.732Z,56.81
2019-04-21T04:23:51.339Z,56.70
2019-04-21T04:24:50.173Z,56.49
2019-04-21T04:25:53.148Z,56.39
2019-04-21T04:26:49.051Z,56.81
2019-04-21T04:27:59.776Z,57.01
2019-04-21T04:29:07.457Z,57.21
2019-04-21T04:29:41.964Z,57.53
2019-04-21T04:30:45.043Z,57.63
2019-04-21T04:32:42.455Z,57.73
2019-04-21T04:33:57.769Z,57.42
2019-04-21T04:34:47.739Z,57.53
2019-04-21T04:36:55.475Z,57.32
2019-04-21T04:37:44.469Z,57.42
2019-04-21T04:38:54.456Z,57.32
2019-04-21T04:40:51.734Z,57.63
2019-04-21T04:41:53.008Z,57.53
2019-04-21T04:42:45.817Z,57.73
2019-04-21T04:43:52.587Z,57.94
2019-04-21T04:44:59.662Z,57.94
2019-04-21T04:46:58.797Z,57.91
2019-04-21T04:48:01.952Z,57.91
2019-04-21T04:48:45.873Z,57.91
2019-04-21T04:51:58.902Z,58.33
2019-04-21T04:53:45.566Z,58.53
2019-04-21T04:56:48.238Z,58.53
2019-04-21T04:57:57.719Z,58.64
2019-04-21T05:01:06.215Z,58.84
2019-04-21T05:01:57.666Z,59.25
2019-04-21T05:02:42.027Z,59.67
2019-04-21T05:05:09.070Z,61.11
2019-04-21T05:05:51.051Z,60.16
2019-04-21T05:06:57.577Z,59.53
2019-04-21T05:07:50.085Z,59.23
2019-04-21T05:13:51.459Z,59.30
2019-04-21T05:15:44.464Z,58.37
2019-04-21T05:16:47.005Z,58.17
2019-04-21T05:17:49.187Z,58.06
2019-04-21T05:18:52.926Z,57.96
2019-04-21T05:19:58.361Z,57.03
2019-04-21T05:20:48.189Z,57.14
2019-04-21T05:21:42.094Z,57.24
2019-04-21T05:22:35.241Z,57.03
2019-04-21T05:23:32.584Z,56.93
2019-04-21T05:24:33.389Z,56.83
2019-04-21T05:25:31.114Z,56.59
2019-04-21T05:26:27.053Z,56.29
2019-04-21T05:27:29.438Z,55.46
2019-04-21T05:28:29.920Z,54.92
2019-04-21T05:29:29.581Z,54.61
2019-04-21T05:31:39.933Z,54.07
2019-04-21T05:32:40.271Z,54.17
2019-04-21T05:33:38.487Z,54.28
2019-04-21T05:34:39.056Z,54.48
2019-04-21T05:35:37.672Z,53.94
2019-04-21T05:36:36.556Z,53.84
2019-04-21T05:37:36.705Z,53.53
2019-04-21T05:38:33.340Z,53.74
2019-04-21T05:39:31.632Z,53.74
2019-04-21T05:40:29.323Z,53.74
2019-04-21T05:41:26.563Z,54.25
2019-04-21T05:42:30.510Z,54.35
2019-04-21T05:43:32.515Z,53.94
2019-04-21T05:44:41.949Z,54.46
2019-04-21T05:45:33.449Z,54.25
2019-04-21T05:46:44.549Z,54.25
2019-04-21T05:47:40.368Z,54.43
2019-04-21T05:48:35.358Z,54.33
2019-04-21T05:49:34.121Z,54.02
2019-04-21T05:50:36.467Z,54.64
2019-04-21T05:51:30.575Z,54.33
2019-04-21T05:52:26.467Z,54.33
2019-04-21T05:56:36.621Z,54.20
2019-04-21T05:57:34.502Z,54.17
2019-04-21T05:58:37.782Z,54.59
2019-04-21T05:59:37.629Z,53.66
2019-04-21T06:00:57.638Z,53.66
2019-04-21T06:01:37.816Z,53.43
2019-04-21T06:02:36.658Z,53.43
2019-04-21T06:04:51.732Z,52.71
2019-04-21T06:05:42.493Z,52.59
2019-04-21T06:06:43.673Z,52.89
2019-04-21T06:07:33.417Z,53.10
2019-04-21T06:08:37.302Z,52.48
2019-04-21T06:09:35.113Z,52.59
2019-04-21T06:10:45.983Z,52.46
2019-04-21T06:11:36.344Z,52.25
2019-04-21T06:12:35.913Z,52.25
2019-04-21T06:13:43.782Z,52.25
2019-04-21T06:14:37.015Z,52.04
2019-04-21T06:15:37.397Z,52.25
2019-04-21T06:16:43.023Z,51.72
2019-04-21T06:17:44.211Z,52.12
2019-04-21T06:18:44.475Z,51.82
2019-04-21T06:19:44.820Z,51.72
2019-04-21T06:20:36.941Z,52.00
2019-04-21T06:21:35.918Z,52.00
2019-04-21T06:22:29.145Z,51.79
2019-04-21T06:23:36.564Z,51.90
2019-04-21T06:24:45.765Z,51.39
2019-04-21T06:25:50.309Z,51.05
2019-04-21T06:26:53.717Z,51.05
2019-04-21T06:27:51.643Z,51.05
2019-04-21T06:28:43.998Z,50.82
2019-04-21T06:29:39.885Z,50.82
2019-04-21T06:30:45.248Z,50.72
2019-04-21T06:32:05.576Z,50.82
2019-04-21T06:33:40.349Z,50.72
2019-04-21T06:34:49.622Z,50.93
2019-04-21T06:35:48.590Z,50.72
2019-04-21T06:36:43.952Z,50.62
2019-04-21T06:37:43.495Z,50.62
2019-04-21T06:38:43.271Z,50.90
2019-04-21T06:39:42.218Z,50.59
2019-04-21T06:40:43.742Z,50.70
2019-04-21T06:41:33.898Z,51.21
2019-04-21T06:42:34.255Z,51.42
2019-04-21T06:43:40.135Z,50.90
2019-04-21T06:44:46.845Z,49.96
2019-04-21T06:45:41.223Z,49.55
2019-04-21T06:46:34.883Z,49.55
2019-04-21T06:47:50.111Z,50.14
2019-04-21T06:48:44.367Z,49.11
2019-04-21T06:49:33.885Z,48.91
2019-04-21T06:50:41.530Z,48.89
2019-04-21T06:51:46.857Z,48.48
2019-04-21T06:52:52.142Z,48.15
2019-04-21T06:53:46.024Z,48.35
2019-04-21T06:55:34.095Z,47.41
2019-04-21T06:56:41.298Z,47.72
2019-04-21T06:58:35.578Z,47.08
2019-04-21T06:59:31.674Z,46.57
2019-04-21T07:00:31.594Z,46.37
2019-04-21T07:01:36.062Z,46.67
2019-04-21T07:02:42.522Z,46.04
2019-04-21T07:03:34.756Z,46.14
2019-04-21T07:04:37.067Z,45.84
2019-04-21T07:05:42.388Z,45.84
2019-04-21T07:06:43.857Z,46.14
2019-04-21T07:07:40.518Z,45.63
2019-04-21T07:09:53.119Z,45.51
2019-04-21T07:10:31.755Z,45.92
2019-04-21T07:11:30.486Z,45.31
2019-04-21T07:12:33.859Z,45.51
2019-04-21T07:13:31.789Z,45.61
2019-04-21T07:14:32.034Z,45.79
2019-04-21T07:15:37.049Z,45.69
2019-04-21T07:16:41.553Z,45.69
2019-04-21T07:17:32.539Z,45.49
2019-04-21T07:18:34.320Z,45.69
2019-04-21T07:19:40.923Z,45.89
2019-04-21T07:20:36.639Z,45.77
2019-04-21T07:21:33.894Z,45.87
2019-04-21T07:22:38.786Z,45.77
2019-04-21T07:23:44.146Z,45.47
2019-04-21T07:24:38.410Z,45.47
2019-04-21T07:25:39.041Z,45.14
2019-04-21T07:26:36.844Z,45.14
2019-04-21T07:27:39.701Z,45.04
2019-04-21T07:28:39.106Z,45.04
2019-04-21T07:29:45.317Z,44.92
2019-04-21T07:30:37.457Z,44.92
2019-04-21T07:31:40.414Z,45.01
2019-04-21T07:32:36.472Z,44.71
2019-04-21T07:34:37.987Z,45.12
2019-04-21T07:35:31.809Z,45.10
2019-04-21T07:37:35.337Z,45.00
2019-04-21T07:38:33.135Z,44.79
2019-04-21T07:39:34.038Z,44.89
2019-04-21T07:40:28.749Z,44.77
2019-04-21T07:41:25.136Z,44.87
2019-04-21T07:42:28.105Z,44.77
2019-04-21T07:43:31.436Z,44.97
2019-04-21T07:44:30.507Z,44.97
2019-04-21T07:45:26.537Z,45.48
2019-04-21T07:46:27.451Z,45.18
2019-04-21T07:47:32.653Z,45.07
2019-04-21T07:48:32.509Z,44.77
2019-04-21T07:49:32.882Z,44.54
2019-04-21T07:50:34.712Z,44.14
2019-04-21T07:51:40.453Z,43.84
2019-04-21T07:52:35.016Z,43.53
2019-04-21T07:53:42.361Z,43.63
2019-04-21T07:54:37.274Z,43.41
2019-04-21T07:56:19.925Z,43.51
2019-04-21T07:57:31.996Z,42.98
2019-04-21T07:58:40.450Z,42.68
2019-04-21T08:00:01.467Z,42.68
2019-04-21T08:00:51.344Z,42.77
2019-04-21T08:01:32.135Z,42.88
2019-04-21T08:03:35.533Z,42.88
2019-04-21T08:05:31.172Z,43.18
2019-04-21T08:06:33.639Z,43.26
2019-04-21T08:07:44.372Z,43.06
2019-04-21T08:08:31.403Z,43.06
2019-04-21T08:09:37.175Z,42.66
2019-04-21T08:10:28.527Z,42.33
2019-04-21T08:11:29.229Z,42.33
2019-04-21T08:12:24.226Z,41.82
2019-04-21T08:13:44.975Z,41.60
2019-04-21T08:14:55.870Z,41.70
2019-04-21T08:15:36.517Z,41.60
2019-04-21T08:16:30.527Z,41.70
2019-04-21T08:17:30.212Z,41.91
2019-04-21T08:18:35.031Z,41.78
2019-04-21T08:19:31.005Z,41.58
2019-04-21T08:20:28.856Z,41.58
2019-04-21T08:21:39.164Z,41.38
2019-04-21T08:22:32.147Z,41.48
2019-04-21T08:23:31.787Z,41.68
2019-04-21T08:24:35.270Z,41.58
2019-04-21T08:25:40.333Z,41.28
2019-04-21T08:26:39.813Z,41.07
2019-04-21T08:27:35.137Z,40.97
2019-04-21T08:28:35.518Z,41.05
2019-04-21T08:29:33.650Z,40.65
2019-04-21T08:30:30.556Z,40.55
2019-04-21T08:31:38.393Z,39.84
2019-04-21T08:32:44.414Z,39.94
2019-04-21T08:33:38.772Z,39.94
2019-04-21T08:34:37.328Z,40.34
2019-04-21T08:36:38.449Z,40.22
2019-04-21T08:37:31.329Z,39.72
2019-04-21T08:38:34.480Z,39.92
2019-04-21T08:39:42.072Z,39.82
2019-04-21T08:40:36.420Z,39.82
2019-04-21T08:41:36.197Z,39.92
2019-04-21T08:42:35.831Z,40.11
2019-04-21T08:43:45.632Z,39.90
2019-04-21T08:44:33.805Z,39.70
2019-04-21T08:45:35.359Z,39.60
2019-04-21T08:46:34.445Z,39.48
2019-04-21T08:47:33.087Z,39.28
2019-04-21T08:48:30.072Z,39.37
2019-04-21T08:49:34.899Z,39.17
2019-04-21T08:50:30.871Z,39.48
2019-04-21T08:51:50.673Z,39.37
2019-04-21T08:52:42.428Z,39.15
2019-04-21T08:53:36.533Z,39.06
2019-04-21T08:54:32.721Z,38.73
2019-04-21T08:55:36.192Z,38.53
2019-04-21T08:56:33.924Z,38.02
2019-04-21T08:57:48.855Z,38.11
2019-04-21T08:58:38.934Z,38.21
2019-04-21T08:59:31.762Z,38.21
2019-04-21T09:00:33.500Z,38.59
2019-04-21T09:02:35.135Z,38.49
2019-04-21T09:03:28.449Z,38.39
2019-04-21T09:04:29.108Z,38.29
2019-04-21T09:05:29.662Z,38.29
2019-04-21T09:06:51.472Z,38.39
2019-04-21T09:07:32.121Z,38.37
2019-04-21T09:08:35.615Z,38.28
2019-04-21T09:09:30.935Z,37.55
2019-04-21T09:10:31.083Z,37.45
2019-04-21T09:11:28.770Z,37.04
2019-04-21T09:12:32.775Z,36.72
2019-04-21T09:13:35.532Z,36.02
2019-04-21T09:14:31.000Z,36.02
2019-04-21T09:15:31.068Z,36.22
2019-04-21T09:16:26.247Z,36.30
2019-04-21T09:17:27.699Z,36.00
2019-04-21T09:18:22.822Z,35.39
2019-04-21T09:19:42.422Z,34.67
2019-04-21T09:20:32.574Z,34.47
2019-04-21T09:21:31.464Z,34.67
2019-04-21T09:22:30.703Z,34.07
2019-04-21T09:23:31.782Z,34.57
2019-04-21T09:24:26.692Z,34.57
2019-04-21T09:25:36.190Z,34.36
2019-04-21T09:26:29.380Z,33.45
2019-04-21T09:27:27.687Z,32.12
2019-04-21T09:28:25.694Z,30.82
2019-04-21T09:29:21.863Z,31.12
2019-04-21T09:30:12.830Z,31.42
2019-04-21T09:31:10.737Z,31.72
2019-04-21T09:32:16.644Z,29.91
2019-04-21T09:33:11.674Z,29.81
2019-04-21T09:34:14.277Z,29.59
2019-04-21T09:35:14.855Z,30.40
2019-04-21T09:36:16.336Z,30.10
2019-04-21T09:37:24.282Z,29.59
2019-04-21T09:38:19.311Z,28.78
2019-04-21T09:39:15.016Z,28.58
2019-04-21T09:40:13.439Z,28.27
2019-04-21T09:41:15.908Z,28.27
2019-04-21T09:42:11.433Z,27.97
2019-04-21T09:43:13.307Z,28.17
2019-04-21T09:44:17.217Z,28.07
2019-04-21T09:45:12.477Z,27.36
2019-04-21T09:46:10.028Z,27.67
2019-04-21T09:47:12.112Z,27.25
2019-04-21T09:48:16.707Z,27.35
2019-04-21T09:49:14.422Z,27.05
2019-04-21T09:50:11.660Z,26.85
2019-04-21T09:51:11.048Z,26.04
2019-04-21T09:52:16.121Z,26.54
2019-04-21T09:53:20.979Z,26.45
2019-04-21T09:54:20.395Z,26.45
2019-04-21T09:55:16.995Z,26.45
2019-04-21T09:56:16.057Z,26.45
2019-04-21T09:57:21.911Z,26.75
2019-04-21T09:58:23.213Z,26.53
2019-04-21T09:59:19.341Z,26.13
2019-04-21T10:00:15.085Z,26.13
2019-04-21T10:01:19.751Z,25.83
2019-04-21T10:02:18.143Z,25.84
2019-04-21T10:03:14.012Z,26.25
2019-04-21T10:04:11.943Z,26.34
2019-04-21T10:05:10.049Z,26.14
2019-04-21T10:06:11.163Z,26.45
2019-04-21T10:07:20.951Z,26.14
2019-04-21T10:08:10.789Z,26.23
2019-04-21T10:09:14.233Z,26.13
2019-04-21T10:10:10.758Z,26.13
2019-04-21T10:11:09.900Z,26.12
2019-04-21T10:12:09.873Z,25.82
2019-04-21T10:13:10.624Z,26.22
2019-04-21T10:14:09.822Z,25.72
2019-04-21T10:15:10.669Z,25.42
2019-04-21T10:16:10.758Z,25.72
2019-04-21T10:17:10.787Z,26.32
2019-04-21T10:18:10.783Z,25.92
2019-04-21T10:19:11.020Z,25.52
2019-04-21T10:20:09.659Z,26.02
2019-04-21T10:21:09.705Z,25.92
2019-04-21T10:22:10.544Z,26.92
2019-04-21T10:23:09.634Z,26.52
2019-04-21T10:24:10.495Z,26.21
2019-04-21T10:25:10.511Z,26.10
2019-04-21T10:26:10.486Z,25.71
2019-04-21T10:27:12.244Z,25.10
2019-04-21T10:28:10.831Z,24.90
2019-04-21T10:29:19.440Z,25.10
2019-04-21T10:30:11.973Z,25.81
2019-04-21T10:31:09.527Z,26.10
2019-04-21T10:32:09.521Z,26.01
2019-04-21T10:33:10.417Z,26.92
2019-04-21T10:34:09.500Z,27.41
2019-04-21T10:35:10.783Z,27.93
2019-04-21T10:36:09.467Z,28.11
2019-04-21T10:37:09.460Z,28.02
2019-04-21T10:38:19.891Z,25.90
2019-04-21T10:39:11.490Z,24.90
2019-04-21T10:40:09.714Z,24.70
2019-04-21T10:41:09.621Z,24.50
2019-04-21T10:42:09.407Z,24.20
2019-04-21T10:43:12.030Z,24.50
2019-04-21T10:44:09.427Z,23.90
2019-04-21T10:45:10.619Z,23.39
2019-04-21T10:46:10.661Z,23.39
2019-04-21T10:47:09.384Z,23.50
2019-04-21T10:48:10.690Z,23.69
2019-04-21T10:49:10.435Z,23.80
2019-04-21T10:50:09.602Z,23.80
2019-04-21T10:51:10.652Z,24.30
2019-04-21T10:52:09.308Z,24.60
2019-04-21T10:53:09.307Z,24.90
2019-04-21T10:54:09.282Z,24.80
2019-04-21T10:55:28.901Z,24.30
2019-04-21T10:56:19.206Z,23.80
2019-04-21T10:57:10.446Z,23.30
2019-04-21T10:58:10.669Z,23.39
2019-04-21T10:59:10.221Z,23.28
2019-04-21T11:00:11.948Z,23.28
2019-04-21T11:01:10.642Z,23.18
2019-04-21T11:02:10.529Z,23.10
2019-04-21T11:03:09.171Z,22.89
2019-04-21T11:04:19.586Z,22.99
2019-04-21T11:05:10.151Z,23.30
2019-04-21T11:06:10.549Z,23.19
2019-04-21T11:07:15.480Z,22.78
2019-04-21T11:08:21.573Z,22.58
2019-04-21T11:09:10.741Z,22.48
2019-04-21T11:10:09.962Z,22.98
2019-04-21T11:11:10.000Z,22.78
2019-04-21T11:12:10.146Z,22.98
2019-04-21T11:13:10.348Z,22.89
2019-04-21T11:14:09.071Z,22.99
2019-04-21T11:15:09.367Z,22.68
2019-04-21T11:16:09.041Z,22.38
2019-04-21T11:17:10.189Z,22.38
2019-04-21T11:18:10.117Z,22.48
2019-04-21T11:19:09.527Z,22.48
2019-04-21T11:20:09.002Z,22.48
2019-04-21T11:21:09.249Z,22.18
2019-04-21T11:22:08.969Z,22.28
2019-04-21T11:23:10.150Z,22.48
2019-04-21T11:24:10.144Z,22.38
2019-04-21T11:25:09.216Z,22.18
2019-04-21T11:26:09.960Z,22.38
2019-04-21T11:27:08.911Z,22.28
2019-04-21T11:28:09.033Z,21.98
2019-04-21T11:29:08.890Z,21.68
2019-04-21T11:30:09.581Z,21.98
2019-04-21T11:31:09.086Z,22.38
2019-04-21T11:32:09.306Z,22.28
2019-04-21T11:33:09.116Z,22.38
2019-04-21T11:34:09.200Z,22.57
2019-04-21T11:35:09.440Z,22.47
2019-04-21T11:36:09.071Z,22.67
2019-04-21T11:37:10.171Z,23.07
2019-04-21T11:38:16.964Z,23.47
2019-04-21T11:39:22.236Z,23.37
2019-04-21T11:40:14.075Z,23.46
2019-04-21T11:41:09.882Z,22.56
2019-04-21T11:42:09.965Z,22.26
2019-04-21T11:43:09.573Z,22.06
2019-04-21T11:44:09.882Z,21.77
2019-04-21T11:45:08.732Z,21.97
2019-04-21T11:46:08.703Z,21.86
2019-04-21T11:47:10.152Z,21.66
2019-04-21T11:48:08.686Z,21.56
2019-04-21T11:49:08.672Z,20.95
2019-04-21T11:50:08.673Z,20.95
2019-04-21T11:51:09.043Z,20.95
2019-04-21T11:52:09.169Z,21.06
2019-04-21T11:53:08.630Z,20.86
2019-04-21T11:54:08.805Z,20.75
2019-04-21T11:55:08.967Z,20.95
2019-04-21T11:56:09.047Z,21.15
2019-04-21T11:57:17.634Z,20.95
2019-04-21T11:58:09.968Z,20.54
2019-04-21T11:59:09.859Z,20.95
2019-04-21T12:00:09.354Z,20.95
2019-04-21T12:01:09.663Z,21.25
2019-04-21T12:02:09.725Z,20.95
2019-04-21T12:03:09.225Z,20.95
2019-04-21T12:04:09.757Z,21.06
2019-04-21T12:05:09.686Z,21.06
2019-04-21T12:06:09.182Z,21.36
2019-04-21T12:07:09.195Z,21.36
2019-04-21T12:08:19.885Z,21.26
2019-04-21T12:09:10.101Z,21.15
2019-04-21T12:10:09.206Z,21.06
2019-04-21T12:11:09.406Z,21.36
2019-04-21T12:12:09.529Z,21.84
2019-04-21T12:13:08.404Z,22.25
2019-04-21T12:14:08.396Z,22.15
2019-04-21T12:15:10.818Z,21.65
2019-04-21T12:16:08.413Z,21.75
2019-04-21T12:17:08.355Z,20.34
2019-04-21T12:18:08.383Z,20.34
2019-04-21T12:19:09.186Z,20.54
2019-04-21T12:20:08.634Z,20.04
2019-04-21T12:21:09.387Z,20.34
2019-04-21T12:22:17.280Z,21.75
2019-04-21T12:23:09.299Z,22.05
2019-04-21T12:24:09.027Z,21.45
2019-04-21T12:25:09.292Z,21.25
2019-04-21T12:26:09.345Z,21.04
2019-04-21T12:27:10.144Z,21.04
2019-04-21T12:28:08.243Z,20.95
2019-04-21T12:29:08.263Z,20.84
2019-04-21T12:30:09.378Z,20.84
2019-04-21T12:31:09.607Z,21.04
2019-04-21T12:32:09.659Z,21.75
2019-04-21T12:33:08.188Z,21.95
2019-04-21T12:34:08.230Z,22.35
2019-04-21T12:35:08.268Z,22.64
2019-04-21T12:36:09.349Z,22.84
2019-04-21T12:37:08.796Z,23.14
2019-04-21T12:38:08.892Z,22.04
2019-04-21T12:39:09.085Z,21.64
2019-04-21T12:40:08.552Z,21.54
2019-04-21T12:41:08.720Z,21.94
2019-04-21T12:42:08.917Z,22.14
2019-04-21T12:43:08.483Z,22.44
2019-04-21T12:44:08.814Z,22.34
2019-04-21T12:45:08.086Z,22.24
2019-04-21T12:46:08.086Z,22.25
2019-04-21T12:47:08.045Z,22.35
2019-04-21T12:48:08.377Z,22.55
2019-04-21T12:49:08.010Z,22.75
2019-04-21T12:50:08.718Z,22.65
2019-04-21T12:51:08.047Z,22.04
2019-04-21T12:52:09.244Z,21.84
2019-04-21T12:53:07.976Z,21.33
2019-04-21T12:54:08.085Z,21.42
2019-04-21T12:55:09.299Z,21.62
2019-04-21T12:56:07.934Z,21.92
2019-04-21T12:57:07.927Z,21.92
2019-04-21T12:58:08.256Z,21.81
2019-04-21T12:59:08.155Z,21.53
2019-04-21T13:00:09.014Z,21.53
2019-04-21T13:01:09.228Z,21.62
2019-04-21T13:02:07.866Z,21.73
2019-04-21T13:03:07.877Z,21.73
2019-04-21T13:04:08.172Z,21.42
2019-04-21T13:05:07.838Z,21.42
2019-04-21T13:06:07.826Z,21.53
2019-04-21T13:07:07.930Z,21.42
2019-04-21T13:08:09.166Z,21.73
2019-04-21T13:09:11.188Z,21.73
2019-04-21T13:10:08.787Z,21.62
2019-04-21T13:11:09.478Z,21.62
2019-04-21T13:12:08.888Z,21.33
2019-04-21T13:13:08.123Z,21.33
2019-04-21T13:14:08.256Z,21.42
2019-04-21T13:15:08.706Z,21.42
2019-04-21T13:16:07.717Z,21.01
2019-04-21T13:17:07.708Z,21.23
2019-04-21T13:18:08.152Z,21.42
2019-04-21T13:19:07.710Z,21.62
2019-04-21T13:20:07.695Z,21.84
2019-04-21T13:21:07.671Z,21.94
2019-04-21T13:22:07.902Z,22.04
2019-04-21T13:23:08.145Z,22.24
2019-04-21T13:24:07.653Z,22.14
2019-04-21T13:25:07.683Z,22.04
2019-04-21T13:26:08.288Z,22.13
2019-04-21T13:27:09.429Z,22.23
2019-04-21T13:28:07.587Z,22.13
2019-04-21T13:29:08.346Z,22.03
2019-04-21T13:30:08.237Z,22.23
2019-04-21T13:31:08.590Z,22.13
2019-04-21T13:32:08.899Z,22.23
2019-04-21T13:33:07.546Z,21.92
2019-04-21T13:34:08.286Z,22.03
2019-04-21T13:35:08.513Z,21.62
2019-04-21T13:36:07.751Z,21.83
2019-04-21T13:37:07.721Z,21.83
2019-04-21T13:38:18.812Z,21.53
2019-04-21T13:39:37.972Z,21.33
2019-04-21T13:40:29.256Z,21.23
2019-04-21T13:41:21.472Z,20.92
2019-04-21T13:42:19.861Z,20.94
2019-04-21T13:43:10.290Z,21.03
2019-04-21T13:44:08.805Z,20.73
2019-04-21T13:45:08.226Z,20.43
2019-04-21T13:46:08.051Z,20.54
2019-04-21T13:47:07.388Z,20.53
2019-04-21T13:48:08.369Z,20.45
2019-04-21T13:49:07.482Z,20.84
2019-04-21T13:50:08.834Z,20.84
2019-04-21T13:51:07.348Z,20.94
2019-04-21T13:52:08.822Z,20.92
2019-04-21T13:53:07.311Z,21.03
2019-04-21T13:54:07.399Z,20.73
2019-04-21T13:55:07.736Z,20.62
2019-04-21T13:56:08.784Z,20.12
2019-04-21T13:57:08.358Z,20.34
2019-04-21T13:58:08.550Z,20.43
2019-04-21T13:59:08.468Z,20.53
2019-04-21T14:00:07.250Z,20.73
2019-04-21T14:01:07.696Z,20.42
2019-04-21T14:02:08.821Z,20.53
2019-04-21T14:03:07.230Z,20.53
2019-04-21T14:04:07.342Z,20.42
2019-04-21T14:05:10.035Z,20.83
2019-04-21T14:06:08.467Z,20.53
2019-04-21T14:07:08.204Z,20.62
2019-04-21T14:08:07.450Z,20.62
2019-04-21T14:09:07.416Z,20.62
2019-04-21T14:10:10.272Z,20.62